ハッピーウェディングフライト!!

LUXURY FLIGHT

03-6423-7371

羽田本店:東京都大田区羽田5-11-1
営業時間:10:00~20:00
定休日:毎週 月曜日
セントレア店:愛知県常滑市セントレア1-1
営業時間:10:00~20:00 年中無休

lv

ハッピーウェディングフライト!!

STAFF BLOG

2019/12/05 ハッピーウェディングフライト!!

中部からこんにちは

 

RJGG 050400Z 32018KT 9999 -SHRA FEW015 SCT040 11/04 Q1024 NOSIG

 

本日は、先日フライトパークにご来園になり、

B787無料抽選に見事ご当選された、Yさまペア!!

 

おめでとうございまーーーーーーすっ!!!

笑顔が印象的なお2人!

 

体験前、住まいはどちらか伺うと、

お兄さんは東京から、お姉さんは名古屋との事。

遠距離恋愛は大変ですね~とお話すると、、、

 

な、な、なんと1週間後にご結婚されるとのこと!!!!

 

ご結婚おめでとうございまーーーーーーすっ!!!!!

 

 

店舗全体が、一瞬でハッピーな雰囲気に埋め尽くされました

 

 

今回は新郎様(仮)がご体験!

 

奥様(仮)の熱視線を背中にビンビン感じつつ、ハッピーテイクオーーーーーーーフ!!!!(笑)

 

初めてのジェット旅客機の操縦に苦戦

最初は、ジェットコースターのようになっていおりましたが、

「飛行機は女性と同じように、優しく扱ってあげることが重要です!!!」

なんて偉そうに申し上げてしまいました…

 

ちなみに私は未婚です。笑

 

 

丁寧に優しいだけではダメなのが、飛行機と女心(笑)

 

「奥様(仮)との大恋愛を思い出してください!!!」

押すときは押して!引くときは引く!

キメるときはキメるっ!!

大胆かつ慎重に!

 

 

f7e234a1-9a33-4ea6-9b16-4391e8956697

 

たったそれだけのアドバイスで、スーパーリカバリーで魅了する新郎様(仮)!

 

うむ…

さすがです!!!

 

豪快だったコントロールが相手を思いやる優しいコントロールに代わり、

最後はもちろん、結婚式を意識したかのような優しい接地でタイヤと地面チュッとしてくれました!!!

 

はい、バカですみません。

 

 

 

 

3441661d-60c1-4280-a04f-e2846013cc67

 

 

お2人があまりに幸せそうで、ついついテンションが上がり過ぎてしまいました(笑)

人生の旅路のスタート直前に、

フライトパークにご来園いただいた事、

さらには787シミュレーターをご体験いただき、誠にありがとうございました!

 

ご結婚、結婚記念日、お誕生日、サプライズなどなど、、、

皆さまの記念日に、ぜひ弊社フライトシミュレーターで

素敵な操縦体験をお楽しみ頂ければ幸いです。

 

皆さまのご希望に出来る限り柔軟にご対応をさせて頂きますので、

どうぞご相談ください。

 

本日もブログをお読みくださり、誠にありがとうございます。

 

 

「感謝」

TOP